Sunflower Gold — JD2460 — position and weather

sailwx.info

Track history (hours):
 
Tides and Currents Weather Stations Pressure Air Temp Water Temp Dewpoint Dewpoint Depression Visibility Wind Speed Wind Dir Waves Ship Positions

Sunflower Gold

Last reported at 2014-Sep-23 17:33 UTC. Time now 2014-Sep-24 04:27 UTC.
Position N 33°57' E 132°41'.

Length 166 m; draft 5.8 m.

Type: Passenger vessel. MMSI: 431000331.

Date/timePositionNaut miles runAvg speedWind from/ knotsBaromVisibWave heightAir tempDewpointWater temp
2014-Sep-23 17:33N 33°57' E 132°41'11318.5
2014-Sep-23 11:25N 34°34' E 134°50'1921.7
2014-Sep-23 10:33N 34°36' E 135°13'7 6.3
2014-Sep-23 09:28N 34°42' E 135°17'0 0.0
2014-Sep-23 08:28N 34°42' E 135°17'0 0.0
2014-Sep-23 07:28N 34°42' E 135°17'0 0.0
2014-Sep-23 06:28N 34°42' E 135°17'0 0.0
2014-Sep-23 05:28N 34°42' E 135°17'0 0.0
2014-Sep-23 04:28N 34°42' E 135°17'0 0.0
2014-Sep-23 03:28N 34°42' E 135°17'0 0.0
2014-Sep-23 02:28N 34°42' E 135°17'0 0.0
2014-Sep-23 01:28N 34°42' E 135°17'0 0.0
2014-Sep-23 00:28N 34°42' E 135°17'0 0.0
2014-Sep-22 23:28N 34°42' E 135°17'0 0.0
2014-Sep-22 22:28N 34°42' E 135°17'0 0.0
2014-Sep-22 21:34N 34°42' E 135°17'1111.1
2014-Sep-22 20:33N 34°35' E 135°07'12517.8
2014-Sep-22 13:33N 33°57' E 132°43'2422.6
2014-Sep-22 12:31N 33°42' E 132°21'29 1.5
2014-Sep-21 17:33N 34°02' E 132°46'10717.6
2014-Sep-21 11:30N 34°35' E 134°49'1919.9
2014-Sep-21 10:34N 34°36' E 135°12'7 6.3
2014-Sep-21 09:28N 34°42' E 135°17'0 0.0
2014-Sep-21 08:28N 34°42' E 135°17'0 0.0
2014-Sep-21 07:28N 34°42' E 135°17'0 0.0
2014-Sep-21 06:22N 34°42' E 135°17'0 0.0
2014-Sep-21 05:16N 34°42' E 135°17'0 0.0
2014-Sep-21 04:28N 34°42' E 135°17'0 0.0
2014-Sep-21 03:28N 34°42' E 135°17'0 0.0
2014-Sep-21 02:28N 34°42' E 135°17'0 0.0
2014-Sep-21 01:28N 34°42' E 135°17'0 0.0
2014-Sep-21 00:28N 34°42' E 135°17'0 0.0
2014-Sep-20 23:28N 34°42' E 135°17'3 2.8
2014-Sep-20 22:33N 34°40' E 135°18'1514.8
2014-Sep-20 21:33N 34°37' E 135°01'1917.8
2014-Sep-20 20:28N 34°28' E 134°40'9916.5
2014-Sep-20 14:26N 33°60' E 132°45'1 0.0
2014-Sep-19 18:28N 34°00' E 132°44'10817.8
2014-Sep-19 12:25N 34°34' E 134°48'1719.8
2014-Sep-19 11:34N 34°36' E 135°09'9 8.7
2014-Sep-19 10:31N 34°42' E 135°17'0 0.0
2014-Sep-19 09:19N 34°42' E 135°17'0 0.0
2014-Sep-19 08:25N 34°42' E 135°17'0 0.0
2014-Sep-19 07:25N 34°42' E 135°17'0 0.0
2014-Sep-19 06:31N 34°42' E 135°17'0 0.0
2014-Sep-19 05:31N 34°42' E 135°17'0 0.0
2014-Sep-19 04:31N 34°42' E 135°17'0 0.0
2014-Sep-19 03:31N 34°42' E 135°17'0 0.0
2014-Sep-19 02:31N 34°42' E 135°17'0 0.0
2014-Sep-19 01:31N 34°42' E 135°17'0 0.0
2014-Sep-19 00:31N 34°42' E 135°17'0 0.0
2014-Sep-18 23:31N 34°42' E 135°17'0 0.0
2014-Sep-18 22:19N 34°42' E 135°17'0 0.0
2014-Sep-18 21:32N 34°42' E 135°17'1010.7
2014-Sep-18 20:34N 34°35' E 135°08'12 0.4
2014-Sep-17 11:28N 34°36' E 134°53'1516.5
2014-Sep-17 10:33N 34°36' E 135°12'7 7.1
2014-Sep-17 09:31N 34°42' E 135°17'0 0.0
2014-Sep-17 08:31N 34°42' E 135°17'0 0.0
2014-Sep-17 07:31N 34°42' E 135°17'0 0.0
2014-Sep-17 06:31N 34°42' E 135°17'0 0.0
2014-Sep-17 05:31N 34°42' E 135°17'0 0.0
2014-Sep-17 04:31N 34°42' E 135°17'0 0.0
2014-Sep-17 03:31N 34°42' E 135°17'0 0.0
2014-Sep-17 02:25N 34°42' E 135°17'0 0.0
2014-Sep-17 01:31N 34°42' E 135°17'0 0.0
2014-Sep-17 00:31N 34°42' E 135°17'0 0.0
2014-Sep-16 23:31N 34°42' E 135°17'0 0.0
2014-Sep-16 22:31N 34°42' E 135°17'0 0.0
2014-Sep-16 21:33N 34°42' E 135°17'1111.1
2014-Sep-16 20:33N 34°35' E 135°07'1818.3
2014-Sep-16 19:33N 34°31' E 134°45'5 0.2
2014-Sep-15 11:33N 34°34' E 134°50'1818.0
2014-Sep-15 10:33N 34°36' E 135°12'7 6.3
2014-Sep-15 09:28N 34°42' E 135°17'0 0.0
2014-Sep-15 08:28N 34°42' E 135°17'0 0.0
2014-Sep-15 07:28N 34°42' E 135°17'0 0.0
2014-Sep-15 06:28N 34°42' E 135°17'0 0.0
2014-Sep-15 05:28N 34°42' E 135°17'0 0.0
2014-Sep-15 04:22N 34°42' E 135°17'0 0.0
2014-Sep-15 03:22N 34°42' E 135°17'0 0.0
2014-Sep-15 02:28N 34°42' E 135°17'0 0.0
2014-Sep-15 01:28N 34°42' E 135°17'0 0.0
2014-Sep-15 00:28N 34°42' E 135°17'0 0.0
2014-Sep-14 23:28N 34°42' E 135°17'0 0.0
2014-Sep-14 22:28N 34°42' E 135°17'0 0.0
2014-Sep-14 21:33N 34°42' E 135°17'1010.5
2014-Sep-14 20:33N 34°35' E 135°07'  
Track history (hours):
 
Tides and Currents Weather Stations Pressure Air Temp Water Temp Dewpoint Dewpoint Depression Visibility Wind Speed Wind Dir Waves Ship Positions

Sunflower Gold

Last reported at 2014-Sep-23 17:33 UTC. Time now 2014-Sep-24 04:27 UTC.
Position N 33°57' E 132°41'.

Length 166 m; draft 5.8 m.

Type: Passenger vessel. MMSI: 431000331.

Date/timePositionNaut miles runAvg speedWind from/ knotsBaromVisibWave heightAir tempDewpointWater temp
2014-Sep-23 17:33N 33°57' E 132°41'11318.5
2014-Sep-23 11:25N 34°34' E 134°50'1921.7
2014-Sep-23 10:33N 34°36' E 135°13'7 6.3
2014-Sep-23 09:28N 34°42' E 135°17'0 0.0
2014-Sep-23 08:28N 34°42' E 135°17'0 0.0
2014-Sep-23 07:28N 34°42' E 135°17'0 0.0
2014-Sep-23 06:28N 34°42' E 135°17'0 0.0
2014-Sep-23 05:28N 34°42' E 135°17'0 0.0
2014-Sep-23 04:28N 34°42' E 135°17'0 0.0
2014-Sep-23 03:28N 34°42' E 135°17'0 0.0
2014-Sep-23 02:28N 34°42' E 135°17'0 0.0
2014-Sep-23 01:28N 34°42' E 135°17'0 0.0
2014-Sep-23 00:28N 34°42' E 135°17'0 0.0
2014-Sep-22 23:28N 34°42' E 135°17'0 0.0
2014-Sep-22 22:28N 34°42' E 135°17'0 0.0
2014-Sep-22 21:34N 34°42' E 135°17'1111.1
2014-Sep-22 20:33N 34°35' E 135°07'12517.8
2014-Sep-22 13:33N 33°57' E 132°43'2422.6
2014-Sep-22 12:31N 33°42' E 132°21'29 1.5
2014-Sep-21 17:33N 34°02' E 132°46'10717.6
2014-Sep-21 11:30N 34°35' E 134°49'1919.9
2014-Sep-21 10:34N 34°36' E 135°12'7 6.3
2014-Sep-21 09:28N 34°42' E 135°17'0 0.0
2014-Sep-21 08:28N 34°42' E 135°17'0 0.0
2014-Sep-21 07:28N 34°42' E 135°17'0 0.0
2014-Sep-21 06:22N 34°42' E 135°17'0 0.0
2014-Sep-21 05:16N 34°42' E 135°17'0 0.0
2014-Sep-21 04:28N 34°42' E 135°17'0 0.0
2014-Sep-21 03:28N 34°42' E 135°17'0 0.0
2014-Sep-21 02:28N 34°42' E 135°17'0 0.0
2014-Sep-21 01:28N 34°42' E 135°17'0 0.0
2014-Sep-21 00:28N 34°42' E 135°17'0 0.0
2014-Sep-20 23:28N 34°42' E 135°17'3 2.8
2014-Sep-20 22:33N 34°40' E 135°18'1514.8
2014-Sep-20 21:33N 34°37' E 135°01'1917.8
2014-Sep-20 20:28N 34°28' E 134°40'9916.5
2014-Sep-20 14:26N 33°60' E 132°45'1 0.0
2014-Sep-19 18:28N 34°00' E 132°44'10817.8
2014-Sep-19 12:25N 34°34' E 134°48'1719.8
2014-Sep-19 11:34N 34°36' E 135°09'9 8.7
2014-Sep-19 10:31N 34°42' E 135°17'0 0.0
2014-Sep-19 09:19N 34°42' E 135°17'0 0.0
2014-Sep-19 08:25N 34°42' E 135°17'0 0.0
2014-Sep-19 07:25N 34°42' E 135°17'0 0.0
2014-Sep-19 06:31N 34°42' E 135°17'0 0.0
2014-Sep-19 05:31N 34°42' E 135°17'0 0.0
2014-Sep-19 04:31N 34°42' E 135°17'0 0.0
2014-Sep-19 03:31N 34°42' E 135°17'0 0.0
2014-Sep-19 02:31N 34°42' E 135°17'0 0.0
2014-Sep-19 01:31N 34°42' E 135°17'0 0.0
2014-Sep-19 00:31N 34°42' E 135°17'0 0.0
2014-Sep-18 23:31N 34°42' E 135°17'0 0.0
2014-Sep-18 22:19N 34°42' E 135°17'0 0.0
2014-Sep-18 21:32N 34°42' E 135°17'1010.7
2014-Sep-18 20:34N 34°35' E 135°08'12 0.4
2014-Sep-17 11:28N 34°36' E 134°53'1516.5
2014-Sep-17 10:33N 34°36' E 135°12'7 7.1
2014-Sep-17 09:31N 34°42' E 135°17'0 0.0
2014-Sep-17 08:31N 34°42' E 135°17'0 0.0
2014-Sep-17 07:31N 34°42' E 135°17'0 0.0
2014-Sep-17 06:31N 34°42' E 135°17'0 0.0
2014-Sep-17 05:31N 34°42' E 135°17'0 0.0
2014-Sep-17 04:31N 34°42' E 135°17'0 0.0
2014-Sep-17 03:31N 34°42' E 135°17'0 0.0
2014-Sep-17 02:25N 34°42' E 135°17'0 0.0
2014-Sep-17 01:31N 34°42' E 135°17'0 0.0
2014-Sep-17 00:31N 34°42' E 135°17'0 0.0
2014-Sep-16 23:31N 34°42' E 135°17'0 0.0
2014-Sep-16 22:31N 34°42' E 135°17'0 0.0
2014-Sep-16 21:33N 34°42' E 135°17'1111.1
2014-Sep-16 20:33N 34°35' E 135°07'1818.3
2014-Sep-16 19:33N 34°31' E 134°45'5 0.2
2014-Sep-15 11:33N 34°34' E 134°50'1818.0
2014-Sep-15 10:33N 34°36' E 135°12'7 6.3
2014-Sep-15 09:28N 34°42' E 135°17'0 0.0
2014-Sep-15 08:28N 34°42' E 135°17'0 0.0
2014-Sep-15 07:28N 34°42' E 135°17'0 0.0
2014-Sep-15 06:28N 34°42' E 135°17'0 0.0
2014-Sep-15 05:28N 34°42' E 135°17'0 0.0
2014-Sep-15 04:22N 34°42' E 135°17'0 0.0
2014-Sep-15 03:22N 34°42' E 135°17'0 0.0
2014-Sep-15 02:28N 34°42' E 135°17'0 0.0
2014-Sep-15 01:28N 34°42' E 135°17'0 0.0
2014-Sep-15 00:28N 34°42' E 135°17'0 0.0
2014-Sep-14 23:28N 34°42' E 135°17'0 0.0
2014-Sep-14 22:28N 34°42' E 135°17'0 0.0
2014-Sep-14 21:33N 34°42' E 135°17'1010.5
2014-Sep-14 20:33N 34°35' E 135°07'  

Dump ship's entire track history